createdAt,value
2022-12-13T00:04:53.396Z,15.70
2022-12-13T00:09:55.849Z,15.93
2022-12-13T00:14:58.394Z,14.75
2022-12-13T00:20:00.997Z,15.93
2022-12-13T00:25:04.095Z,16.05
2022-12-13T00:30:07.092Z,16.23
2022-12-13T00:35:09.715Z,16.05
2022-12-13T00:40:12.645Z,16.05
2022-12-13T00:45:15.488Z,14.25
2022-12-13T00:50:18.258Z,17.00
2022-12-13T00:55:20.846Z,13.87
2022-12-13T01:00:23.515Z,14.00
2022-12-13T01:05:47.572Z,12.38
2022-12-13T01:10:48.578Z,18.23
2022-12-13T01:15:51.064Z,20.73
2022-12-13T01:21:08.202Z,28.37
2022-12-13T01:26:17.946Z,34.40
2022-12-13T01:31:21.346Z,8.23
2022-12-13T01:36:26.969Z,10.10
2022-12-13T01:41:33.740Z,16.10
2022-12-13T01:46:36.672Z,14.00
2022-12-13T01:52:00.071Z,13.95
2022-12-13T01:57:05.350Z,10.13
2022-12-13T02:02:08.646Z,16.73
2022-12-13T02:07:12.708Z,21.35
2022-12-13T02:12:15.415Z,16.23
2022-12-13T02:17:46.626Z,14.60
2022-12-13T02:23:11.631Z,15.95
2022-12-13T02:28:31.581Z,17.85
2022-12-13T02:33:41.761Z,13.52
2022-12-13T02:38:56.692Z,10.17
2022-12-13T02:44:22.823Z,4.68
2022-12-13T02:49:28.635Z,5.78
2022-12-13T02:54:31.505Z,2.95
2022-12-13T02:59:40.341Z,9.18
2022-12-13T03:05:25.723Z,9.63
2022-12-13T03:10:36.436Z,10.98
2022-12-13T03:15:51.495Z,12.43
2022-12-13T03:21:14.408Z,14.05
2022-12-13T03:26:23.529Z,12.57
2022-12-13T03:31:26.061Z,13.73
2022-12-13T03:36:28.622Z,15.05
2022-12-13T03:41:32.335Z,12.07
2022-12-13T03:46:34.957Z,11.25
2022-12-13T03:51:37.497Z,10.57
2022-12-13T03:56:39.975Z,11.17
2022-12-13T04:01:42.614Z,11.65
2022-12-13T04:06:45.232Z,10.73
2022-12-13T04:12:06.038Z,13.18
2022-12-13T04:17:08.542Z,15.52
2022-12-13T04:22:11.002Z,13.03
2022-12-13T04:27:13.506Z,11.80
2022-12-13T04:32:26.543Z,13.65
2022-12-13T04:37:30.603Z,12.57
2022-12-13T04:42:33.214Z,12.45
2022-12-13T04:47:35.657Z,9.73
2022-12-13T04:52:39.717Z,10.70
2022-12-13T04:57:42.224Z,10.75
2022-12-13T05:02:44.865Z,8.95
2022-12-13T05:07:47.353Z,7.10
2022-12-13T05:12:49.812Z,5.43
2022-12-13T05:17:52.267Z,12.98
2022-12-13T05:22:57.651Z,5.40
2022-12-13T05:28:00.242Z,6.03
2022-12-13T05:33:12.750Z,9.40
2022-12-13T05:38:15.471Z,10.70
2022-12-13T05:43:21.357Z,7.05
2022-12-13T05:48:25.052Z,6.10
2022-12-13T05:53:30.692Z,7.82
2022-12-13T05:58:36.026Z,8.48
2022-12-13T06:03:39.291Z,7.83
2022-12-13T06:08:41.994Z,6.68
2022-12-13T06:13:44.672Z,11.13
2022-12-13T06:18:47.473Z,10.18
2022-12-13T06:23:53.478Z,11.50
2022-12-13T06:28:55.958Z,13.00
2022-12-13T06:34:13.903Z,16.45
2022-12-13T06:39:17.529Z,23.13
2022-12-13T06:44:20.087Z,21.35
2022-12-13T06:49:22.567Z,28.15
2022-12-13T06:54:25.054Z,20.20
2022-12-13T06:59:27.645Z,19.73
2022-12-13T07:04:31.182Z,13.35
2022-12-13T07:09:34.267Z,18.38
2022-12-13T07:14:40.454Z,18.70
2022-12-13T07:19:44.396Z,20.70
2022-12-13T07:24:47.271Z,22.10
2022-12-13T07:29:49.743Z,12.32
2022-12-13T07:34:52.313Z,14.52
2022-12-13T07:40:02.704Z,3.70
2022-12-13T07:45:06.564Z,5.80
2022-12-13T07:50:24.056Z,11.70
2022-12-13T07:55:33.192Z,33.35
2022-12-13T08:00:37.970Z,11.13
2022-12-13T08:05:40.572Z,13.13
2022-12-13T08:10:43.118Z,15.13
2022-12-13T08:15:45.691Z,13.13
2022-12-13T08:20:48.234Z,14.45
2022-12-13T08:25:54.675Z,10.90
2022-12-13T08:31:02.471Z,12.85
2022-12-13T08:36:12.309Z,18.00
2022-12-13T08:41:14.914Z,23.95
2022-12-13T08:46:17.872Z,20.55
2022-12-13T08:51:24.616Z,20.35
2022-12-13T08:56:29.922Z,18.00
2022-12-13T09:01:33.526Z,17.00
2022-12-13T09:06:37.300Z,18.02
2022-12-13T09:11:41.046Z,15.43
2022-12-13T09:16:51.097Z,22.45
2022-12-13T09:22:02.828Z,15.70
2022-12-13T09:27:09.934Z,15.73
2022-12-13T09:32:12.776Z,18.88
2022-12-13T09:37:15.685Z,15.95
2022-12-13T09:42:30.466Z,18.95
2022-12-13T09:47:47.495Z,41.97
2022-12-13T09:52:50.396Z,19.23
2022-12-13T09:57:53.785Z,17.90
2022-12-13T10:02:58.297Z,30.65
2022-12-13T10:08:12.636Z,17.33
2022-12-13T10:13:36.877Z,40.10
2022-12-13T10:18:41.533Z,24.13
2022-12-13T10:24:15.718Z,79.68
2022-12-13T10:29:07.298Z,41.25
2022-12-13T10:34:30.674Z,27.73
2022-12-13T10:39:41.221Z,27.88
2022-12-13T10:44:44.021Z,26.63
2022-12-13T10:49:59.029Z,24.83
2022-12-13T10:55:34.220Z,21.38
2022-12-13T11:00:47.453Z,24.23
2022-12-13T11:06:15.978Z,24.90
2022-12-13T11:11:20.108Z,24.07
2022-12-13T11:16:32.069Z,24.38
2022-12-13T11:21:37.278Z,31.38
2022-12-13T11:26:43.304Z,25.40
2022-12-13T11:32:07.359Z,14.40
2022-12-13T11:37:37.179Z,15.47
2022-12-13T11:42:49.005Z,13.50
2022-12-13T11:48:11.644Z,11.90
2022-12-13T11:53:23.609Z,13.65
2022-12-13T11:59:02.440Z,16.90
2022-12-13T12:04:00.373Z,23.73
2022-12-13T12:09:06.923Z,19.25
2022-12-13T12:14:25.030Z,20.80
2022-12-13T12:19:33.394Z,47.00
2022-12-13T12:25:00.875Z,21.55
2022-12-13T12:30:25.002Z,12.77
2022-12-13T12:35:53.034Z,12.25
2022-12-13T12:41:17.432Z,11.50
2022-12-13T12:47:17.758Z,29.17
2022-12-13T12:52:27.740Z,37.53
2022-12-13T12:57:45.190Z,16.53
2022-12-13T13:03:23.190Z,20.35
2022-12-13T13:08:29.319Z,21.00
2022-12-13T13:13:46.480Z,23.10
2022-12-13T13:18:52.789Z,23.80
2022-12-13T13:24:14.279Z,15.70
2022-12-13T13:29:27.903Z,11.00
2022-12-13T13:34:36.106Z,19.00
2022-12-13T13:39:56.807Z,17.88
2022-12-13T13:45:15.758Z,15.10
2022-12-13T13:50:36.224Z,15.73
2022-12-13T13:56:02.186Z,21.02
2022-12-13T14:01:29.639Z,20.13
2022-12-13T14:06:47.605Z,31.92
2022-12-13T14:11:50.779Z,53.60
2022-12-13T14:17:11.459Z,22.60
2022-12-13T14:22:35.193Z,27.33
2022-12-13T14:28:02.291Z,14.88
2022-12-13T14:33:04.884Z,15.88
2022-12-13T14:38:36.719Z,13.20
2022-12-13T14:43:39.196Z,15.83
2022-12-13T14:48:50.733Z,22.00
2022-12-13T14:53:54.068Z,20.88
2022-12-13T14:59:01.587Z,20.42
2022-12-13T15:04:22.681Z,20.48
2022-12-13T15:09:29.014Z,20.43
2022-12-13T15:14:31.983Z,29.38
2022-12-13T15:19:48.663Z,21.65
2022-12-13T15:24:52.182Z,20.27
2022-12-13T15:29:54.918Z,18.98
2022-12-13T15:34:58.411Z,18.67
2022-12-13T15:40:08.631Z,22.05
2022-12-13T15:45:23.429Z,20.27
2022-12-13T15:50:34.203Z,16.33
2022-12-13T15:55:37.917Z,15.65
2022-12-13T16:00:49.927Z,20.60
2022-12-13T16:05:55.024Z,19.23
2022-12-13T16:10:58.841Z,15.38
2022-12-13T16:16:28.294Z,23.55
2022-12-13T16:21:30.937Z,22.40
2022-12-13T16:26:35.312Z,16.70
2022-12-13T16:31:37.871Z,16.10
2022-12-13T16:36:40.863Z,15.90
2022-12-13T16:41:45.615Z,17.45
2022-12-13T16:47:15.081Z,18.52
2022-12-13T16:52:10.629Z,34.20
2022-12-13T16:57:13.246Z,44.72
2022-12-13T17:02:18.122Z,38.67
2022-12-13T17:07:20.779Z,41.42
2022-12-13T17:12:26.540Z,38.17
2022-12-13T17:17:29.052Z,31.47
2022-12-13T17:22:32.270Z,26.50
2022-12-13T17:27:35.336Z,21.60
2022-12-13T17:32:37.838Z,24.50
2022-12-13T17:37:40.553Z,36.80
2022-12-13T17:42:43.008Z,29.70
2022-12-13T17:47:45.951Z,20.25
2022-12-13T17:52:48.543Z,16.95
2022-12-13T17:57:51.078Z,20.10
2022-12-13T18:02:56.559Z,21.90
2022-12-13T18:07:59.069Z,20.73
2022-12-13T18:13:01.612Z,23.20
2022-12-13T18:18:12.413Z,22.13
2022-12-13T18:23:15.493Z,17.92
2022-12-13T18:28:18.553Z,4.82
2022-12-13T18:33:21.429Z,24.03
2022-12-13T18:38:26.211Z,27.33
2022-12-13T18:43:30.759Z,25.10
2022-12-13T18:48:33.472Z,20.92
2022-12-13T18:53:37.350Z,24.75
2022-12-13T18:58:40.175Z,81.27
2022-12-13T19:03:46.722Z,50.70
2022-12-13T19:08:54.132Z,49.58
2022-12-13T19:13:56.962Z,49.42
2022-12-13T19:18:59.668Z,43.00
2022-12-13T19:24:02.508Z,45.87
2022-12-13T19:29:05.367Z,19.20
2022-12-13T19:34:08.037Z,42.13
2022-12-13T19:39:13.073Z,46.03
2022-12-13T19:44:15.583Z,60.03
2022-12-13T19:49:18.127Z,55.13
2022-12-13T19:54:27.367Z,47.30
2022-12-13T19:59:30.159Z,41.22
2022-12-13T20:04:34.985Z,52.38
2022-12-13T20:09:39.356Z,49.63
2022-12-13T20:14:41.981Z,38.60
2022-12-13T20:19:44.481Z,37.05
2022-12-13T20:24:47.173Z,147.10
2022-12-13T20:29:50.683Z,123.18
2022-12-13T20:34:54.938Z,41.25
2022-12-13T20:39:58.061Z,34.80
2022-12-13T20:45:00.532Z,38.17
2022-12-13T20:50:03.063Z,47.17
2022-12-13T20:55:06.391Z,48.85
2022-12-13T21:00:09.568Z,39.28
2022-12-13T21:05:19.084Z,25.80
2022-12-13T21:10:23.174Z,28.92
2022-12-13T21:15:28.156Z,31.38
2022-12-13T21:20:31.038Z,32.00
2022-12-13T21:25:33.635Z,27.13
2022-12-13T21:30:36.175Z,21.57
2022-12-13T21:35:38.727Z,15.02
2022-12-13T21:40:50.837Z,15.57
2022-12-13T21:45:53.441Z,14.40
2022-12-13T21:50:56.056Z,12.80
2022-12-13T21:56:17.461Z,53.30
2022-12-13T22:01:20.072Z,21.75
2022-12-13T22:06:22.714Z,17.55
2022-12-13T22:11:25.225Z,15.25
2022-12-13T22:16:27.735Z,38.22
2022-12-13T22:21:30.808Z,18.20
2022-12-13T22:26:33.293Z,18.92
2022-12-13T22:31:35.982Z,19.38
2022-12-13T22:36:38.675Z,18.77
2022-12-13T22:41:41.157Z,18.10
2022-12-13T22:46:44.136Z,14.50
2022-12-13T22:51:46.785Z,15.95
2022-12-13T22:56:52.655Z,14.55
2022-12-13T23:02:01.952Z,14.93
2022-12-13T23:07:05.320Z,18.50
2022-12-13T23:12:26.276Z,16.80
2022-12-13T23:17:28.781Z,18.38
2022-12-13T23:22:31.349Z,15.00
2022-12-13T23:27:33.855Z,14.90
2022-12-13T23:32:36.499Z,17.80
2022-12-13T23:37:39.422Z,17.67
2022-12-13T23:42:41.951Z,17.15
2022-12-13T23:47:44.451Z,15.70
2022-12-13T23:52:46.958Z,15.77
2022-12-13T23:57:50.928Z,13.63
